Time;durP1;ratioP1;P1;durP2;ratioP2;P2;SDS_P1;SDS_P2;PMS_P1;PMS_P2;Temp;Humidity;BMP_temperature;BMP_pressure;BME280_temperature;BME280_humidity;BME280_pressure;Samples;Min_cycle;Max_cycle;Signal;HPM_P1;HPM_P2
2022/10/22 00:01:03;;;;;;;26.08;16.42;;;;;;;11.76;57.13;100668.84;5069703;28;20043;-42
2022/10/22 00:03:28;;;;;;;24.15;15.13;;;;;;;11.83;56.75;100660.94;5069642;28;20024;-42
2022/10/22 00:05:54;;;;;;;24.27;15.68;;;;;;;11.74;56.66;100655.69;5070217;28;20027;-43
2022/10/22 00:08:19;;;;;;;24.05;15.20;;;;;;;11.72;56.74;100647.06;5070297;28;20044;-44
2022/10/22 00:10:45;;;;;;;28.73;14.95;;;;;;;11.61;57.77;100655.56;5070132;28;20059;-42
2022/10/22 00:13:10;;;;;;;23.52;14.50;;;;;;;11.50;58.50;100643.56;5070497;28;20020;-42
2022/10/22 00:15:36;;;;;;;21.77;13.93;;;;;;;11.72;56.88;100641.72;5070259;28;20089;-43
2022/10/22 00:18:01;;;;;;;24.08;15.13;;;;;;;11.49;57.73;100633.09;5070311;28;20410;-42
2022/10/22 00:20:27;;;;;;;26.92;14.48;;;;;;;11.26;58.03;100649.22;5070345;28;20115;-42
2022/10/22 00:22:52;;;;;;;24.90;15.23;;;;;;;11.31;57.73;100636.16;5069837;28;20373;-42
2022/10/22 00:25:17;;;;;;;23.10;14.52;;;;;;;11.51;57.38;100636.38;5069720;28;20391;-42
2022/10/22 00:27:43;;;;;;;25.65;15.10;;;;;;;11.67;57.50;100632.66;5070957;28;20081;-45
2022/10/22 00:30:09;;;;;;;26.23;15.05;;;;;;;11.73;56.74;100626.59;5071127;28;20043;-41
2022/10/22 00:32:34;;;;;;;28.40;14.90;;;;;;;11.70;57.00;100627.75;5070049;28;20036;-41
2022/10/22 00:35:00;;;;;;;20.75;14.65;;;;;;;11.60;57.12;100619.25;5070009;28;20021;-40
2022/10/22 00:37:25;;;;;;;21.25;14.30;;;;;;;11.66;57.72;100620.34;5070233;28;20021;-44
2022/10/22 00:39:51;;;;;;;24.92;14.98;;;;;;;11.61;56.59;100623.56;5069868;28;20388;-43
2022/10/22 00:42:19;;;;;;;22.60;14.50;;;;;;;11.66;56.72;100620.34;5070088;28;20111;-43
2022/10/22 00:45:03;;;;;;;25.20;14.60;;;;;;;11.59;57.16;100609.59;5069814;28;20020;-41
2022/10/22 00:48:00;;;;;;;21.60;14.48;;;;;;;11.57;58.06;100611.63;5070062;28;20017;-43
2022/10/22 00:50:48;;;;;;;22.02;13.57;;;;;;;11.62;57.05;100619.09;5070045;28;20070;-42
2022/10/22 00:53:21;;;;;;;25.33;14.30;;;;;;;11.65;57.06;100613.34;5069431;28;20040;-42
2022/10/22 00:55:52;;;;;;;20.23;13.98;;;;;;;11.53;57.62;100613.03;5069811;28;20032;-43
2022/10/22 00:58:21;;;;;;;20.98;14.60;;;;;;;11.35;57.89;100611.59;5069757;28;20411;-42
2022/10/22 01:00:47;;;;;;;22.30;14.55;;;;;;;11.47;57.10;100613.78;5069557;28;20105;-42
2022/10/22 01:03:13;;;;;;;21.40;14.55;;;;;;;11.38;58.10;100614.91;5069763;28;20070;-42
2022/10/22 01:05:44;;;;;;;23.58;15.00;;;;;;;11.31;57.68;100620.19;5069592;28;20055;-42
2022/10/22 01:08:20;;;;;;;23.73;15.15;;;;;;;11.19;58.88;100619.81;5068956;28;20031;-42
2022/10/22 01:11:14;;;;;;;24.55;14.80;;;;;;;11.25;58.66;100623.56;5069785;28;20334;-42
2022/10/22 01:14:12;;;;;;;24.40;15.02;;;;;;;11.12;58.55;100619.75;5060620;28;20094;-42
2022/10/22 01:16:48;;;;;;;21.42;15.45;;;;;;;10.94;59.02;100606.78;5046356;28;20052;-42
2022/10/22 01:19:38;;;;;;;20.98;15.10;;;;;;;10.99;59.41;100600.91;5069465;28;20051;-44
2022/10/22 01:22:14;;;;;;;26.00;15.55;;;;;;;10.94;58.72;100605.97;5069072;28;20114;-43
2022/10/22 01:24:55;;;;;;;23.52;14.40;;;;;;;10.96;58.79;100598.63;5069530;28;20029;-42
2022/10/22 01:28:06;;;;;;;24.05;14.90;;;;;;;10.95;59.17;100592.47;5069061;28;20035;-41
2022/10/22 01:30:35;;;;;;;24.92;14.88;;;;;;;11.00;59.30;100610.53;5053218;28;20053;-42
2022/10/22 01:33:05;;;;;;;21.75;14.45;;;;;;;11.09;58.76;100597.97;5069142;28;20119;-43
2022/10/22 01:35:37;;;;;;;23.35;14.32;;;;;;;11.09;59.02;100597.97;5069239;28;20123;-42
2022/10/22 01:38:11;;;;;;;20.38;13.82;;;;;;;11.10;58.38;100608.44;5072083;28;20085;-43
2022/10/22 01:40:38;;;;;;;22.58;14.43;;;;;;;11.18;58.72;100599.53;5073177;28;20020;-42
2022/10/22 01:43:06;;;;;;;21.80;14.93;;;;;;;11.14;58.47;100600.91;5073035;28;20024;-43
2022/10/22 01:45:41;;;;;;;22.75;14.35;;;;;;;11.17;58.89;100597.84;5071552;28;20409;-43
2022/10/22 01:48:32;;;;;;;21.42;15.25;;;;;;;11.04;59.09;100597.69;5072829;28;20036;-42
2022/10/22 01:51:21;;;;;;;22.90;15.40;;;;;;;11.14;58.61;100596.41;5073009;28;20090;-43
2022/10/22 01:53:59;;;;;;;24.33;14.75;;;;;;;11.15;58.44;100600.69;5072512;28;20481;-43
2022/10/22 01:56:24;;;;;;;25.45;15.32;;;;;;;11.08;58.90;100599.81;5072917;28;20029;-44
2022/10/22 01:59:23;;;;;;;20.88;14.95;;;;;;;11.08;59.07;100590.97;5073094;28;20020;-44
2022/10/22 02:02:17;;;;;;;24.08;16.05;;;;;;;10.74;59.83;100595.88;5072652;28;20103;-43
2022/10/22 02:04:49;;;;;;;27.10;15.10;;;;;;;10.76;59.89;100604.50;5072204;28;20052;-43
2022/10/22 02:07:20;;;;;;;26.52;15.82;;;;;;;10.19;61.52;100597.06;5072109;28;20401;-43
2022/10/22 02:09:46;;;;;;;21.33;14.80;;;;;;;10.16;62.63;100597.41;5072717;28;20023;-44
2022/10/22 02:12:13;;;;;;;21.80;14.98;;;;;;;10.39;60.81;100599.25;5072586;28;20043;-43
2022/10/22 02:14:43;;;;;;;24.60;15.10;;;;;;;10.41;60.90;100606.03;5072356;28;20024;-43
2022/10/22 02:17:13;;;;;;;25.40;15.30;;;;;;;10.51;60.45;100611.13;5072696;28;20433;-42
2022/10/22 02:19:53;;;;;;;27.27;15.32;;;;;;;10.23;61.19;100602.88;5072138;28;20032;-43
2022/10/22 02:22:19;;;;;;;27.45;15.23;;;;;;;9.55;63.42;100597.38;5072326;28;20412;-43
2022/10/22 02:24:45;;;;;;;23.40;14.85;;;;;;;9.33;64.47;100607.81;5072597;28;20478;-42
2022/10/22 02:27:55;;;;;;;23.77;15.05;;;;;;;9.79;62.86;100596.41;5072313;28;20095;-44
2022/10/22 02:30:22;;;;;;;25.10;15.43;;;;;;;10.02;62.06;100603.53;5029820;28;20056;-42
2022/10/22 02:32:54;;;;;;;27.17;15.55;;;;;;;10.08;62.40;100605.47;5063759;28;20044;-42
2022/10/22 02:35:22;;;;;;;20.75;14.65;;;;;;;10.27;61.42;100609.47;5072238;28;20029;-42
2022/10/22 02:37:50;;;;;;;23.55;14.95;;;;;;;10.32;61.10;100605.28;5071932;28;20024;-43
2022/10/22 02:40:16;;;;;;;22.35;14.15;;;;;;;10.31;60.91;100608.13;5071928;28;20032;-42
2022/10/22 02:42:42;;;;;;;24.30;14.55;;;;;;;10.15;61.13;100603.75;5072344;28;20133;-42
2022/10/22 02:45:08;;;;;;;23.42;15.27;;;;;;;10.27;60.56;100606.81;5071810;28;20454;-42
2022/10/22 02:47:34;;;;;;;22.73;14.57;;;;;;;10.08;62.09;100602.81;5071664;28;20044;-42
2022/10/22 02:49:59;;;;;;;22.20;14.45;;;;;;;10.05;61.90;100603.16;5071502;28;20444;-43
2022/10/22 02:52:24;;;;;;;23.95;15.10;;;;;;;10.14;61.11;100594.13;5071693;28;20461;-43
2022/10/22 02:54:50;;;;;;;20.88;15.40;;;;;;;10.49;60.33;100603.31;5071895;28;20044;-42
2022/10/22 02:57:15;;;;;;;25.88;15.73;;;;;;;10.45;59.77;100607.34;5071687;28;20185;-43
2022/10/22 02:59:41;;;;;;;24.83;15.60;;;;;;;10.43;60.41;100606.66;5071427;28;20024;-42
2022/10/22 03:02:06;;;;;;;24.15;15.00;;;;;;;10.44;59.68;100610.19;5071577;28;20020;-43
2022/10/22 03:04:32;;;;;;;23.13;15.57;;;;;;;10.15;61.03;100601.91;5070863;28;20035;-42
2022/10/22 03:06:58;;;;;;;24.42;15.13;;;;;;;10.25;60.71;100604.31;5071489;28;20031;-40
2022/10/22 03:09:23;;;;;;;21.55;15.18;;;;;;;10.05;60.73;100609.34;5071389;28;20041;-41
2022/10/22 03:11:49;;;;;;;23.85;14.48;;;;;;;9.91;61.42;100604.78;5071207;28;20024;-42
2022/10/22 03:14:14;;;;;;;24.23;14.38;;;;;;;10.08;61.29;100603.63;5071210;28;20032;-41
2022/10/22 03:16:40;;;;;;;20.83;14.52;;;;;;;10.07;60.64;100599.34;5069768;28;20054;-41
2022/10/22 03:19:05;;;;;;;27.52;15.38;;;;;;;10.28;60.09;100608.44;5071034;28;20028;-41
2022/10/22 03:21:36;;;;;;;23.23;14.80;;;;;;;10.27;59.92;100604.97;5071174;28;20056;-42
2022/10/22 03:24:15;;;;;;;26.65;15.43;;;;;;;10.23;60.09;100597.53;5071073;28;20115;-41
2022/10/22 03:26:42;;;;;;;23.77;15.52;;;;;;;10.07;60.54;100593.19;5071384;28;20368;-42
2022/10/22 03:29:10;;;;;;;22.85;14.82;;;;;;;9.93;61.01;100587.63;5071337;28;20108;-43
2022/10/22 03:31:35;;;;;;;24.75;15.98;;;;;;;10.05;60.87;100589.88;5070626;28;20411;-41
2022/10/22 03:34:01;;;;;;;24.85;14.93;;;;;;;10.15;60.41;100593.13;5071186;28;20020;-42
2022/10/22 03:36:26;;;;;;;24.05;15.27;;;;;;;10.26;59.74;100589.19;5070775;28;20099;-43
2022/10/22 03:38:52;;;;;;;28.60;16.67;;;;;;;10.29;59.84;100589.66;5070955;28;20020;-42
2022/10/22 03:41:18;;;;;;;23.40;15.70;;;;;;;10.20;59.99;100587.25;5070882;28;20383;-42
2022/10/22 03:43:48;;;;;;;23.00;15.27;;;;;;;10.15;60.56;100583.31;5070536;28;20024;-41
2022/10/22 03:46:14;;;;;;;24.75;15.07;;;;;;;10.18;60.49;100588.28;5070604;28;20539;-40
2022/10/22 03:48:39;;;;;;;24.65;15.90;;;;;;;10.24;59.83;100586.69;5070721;28;20107;-41
2022/10/22 03:51:05;;;;;;;22.77;15.40;;;;;;;10.18;60.40;100596.25;5070676;28;20020;-41
2022/10/22 03:53:30;;;;;;;23.65;15.27;;;;;;;10.13;59.90;100598.63;5070315;28;20139;-42
2022/10/22 03:55:55;;;;;;;21.08;14.82;;;;;;;10.16;59.66;100600.09;5070676;28;20059;-43
2022/10/22 03:58:21;;;;;;;29.95;15.82;;;;;;;10.06;60.48;100587.03;5070583;28;20031;-45
2022/10/22 04:00:46;;;;;;;22.52;15.00;;;;;;;10.04;60.48;100591.72;5070836;28;20024;-41
2022/10/22 04:03:12;;;;;;;24.08;14.77;;;;;;;10.10;60.38;100588.31;5070721;28;20031;-41
2022/10/22 04:05:37;;;;;;;27.50;15.77;;;;;;;10.03;60.44;100595.38;5071006;28;20021;-41
2022/10/22 04:08:03;;;;;;;26.02;15.88;;;;;;;9.95;60.79;100598.09;5070212;28;20136;-41
2022/10/22 04:10:28;;;;;;;25.40;15.60;;;;;;;9.90;61.00;100592.47;5070711;28;20059;-43
2022/10/22 04:12:54;;;;;;;26.05;15.75;;;;;;;10.04;60.45;100594.38;5070551;28;20012;-42
2022/10/22 04:15:19;;;;;;;22.67;16.02;;;;;;;10.11;59.83;100599.78;5070432;28;20020;-42
2022/10/22 04:17:44;;;;;;;23.50;15.70;;;;;;;9.99;60.38;100599.38;5070499;28;20376;-42
2022/10/22 04:20:10;;;;;;;27.73;16.13;;;;;;;9.95;60.58;100598.91;5070347;28;20330;-42
2022/10/22 04:22:36;;;;;;;23.33;15.63;;;;;;;10.10;60.36;100604.28;5069019;28;20075;-41
2022/10/22 04:25:02;;;;;;;25.05;15.95;;;;;;;9.96;60.17;100608.56;5070629;28;20025;-42
2022/10/22 04:27:32;;;;;;;23.88;16.00;;;;;;;9.93;60.48;100608.09;5069954;28;20104;-43
2022/10/22 04:29:58;;;;;;;;;;;;;;;10.25;60.00;100612.31;5070777;28;20539;-41
2022/10/22 04:32:24;;;;;;;24.23;15.50;;;;;;;9.93;60.30;100611.56;5070306;28;20008;-41
2022/10/22 04:34:50;;;;;;;24.45;15.52;;;;;;;9.91;60.23;100616.22;5070307;28;20032;-41
2022/10/22 04:37:15;;;;;;;24.95;15.05;;;;;;;9.84;60.41;100609.16;5070200;28;20491;-41
2022/10/22 04:39:41;;;;;;;26.42;16.00;;;;;;;9.93;60.41;100608.91;5070449;28;20471;-42
2022/10/22 04:42:06;;;;;;;29.85;17.10;;;;;;;9.95;60.75;100616.72;5069889;28;20027;-41
2022/10/22 04:44:32;;;;;;;30.35;16.73;;;;;;;9.94;60.43;100618.56;5069972;28;20025;-42
2022/10/22 04:46:57;;;;;;;27.30;15.98;;;;;;;9.94;60.07;100604.44;5070220;28;20029;-42
2022/10/22 04:49:23;;;;;;;28.02;16.27;;;;;;;9.98;60.08;100606.56;5070427;28;20094;-45
2022/10/22 04:51:48;;;;;;;30.60;16.52;;;;;;;9.91;60.63;100602.13;5069773;28;20392;-42
2022/10/22 04:54:14;;;;;;;29.58;16.23;;;;;;;9.73;60.90;100595.28;5069975;28;20027;-40
2022/10/22 04:56:39;;;;;;;23.08;15.38;;;;;;;9.93;60.96;100594.78;5070160;28;20325;-41
2022/10/22 04:59:09;;;;;;;23.13;14.80;;;;;;;9.87;61.03;100587.53;5069829;28;20017;-41
2022/10/22 05:01:37;;;;;;;26.52;15.60;;;;;;;9.73;61.79;100589.16;5069719;28;20421;-40
2022/10/22 05:04:04;;;;;;;30.17;18.60;;;;;;;9.85;61.72;100584.22;5069894;28;20058;-41
2022/10/22 05:06:31;;;;;;;40.90;25.75;;;;;;;10.04;60.98;100594.38;5070181;28;20111;-43
2022/10/22 05:09:00;;;;;;;31.60;21.60;;;;;;;9.98;62.82;100590.59;5069387;28;20047;-41
2022/10/22 05:11:29;;;;;;;22.95;14.10;;;;;;;9.73;64.00;100583.81;5067817;28;20032;-41
2022/10/22 05:13:56;;;;;;;25.67;16.63;;;;;;;9.91;62.45;100580.84;5073695;28;20036;-41
2022/10/22 05:16:23;;;;;;;24.27;15.57;;;;;;;9.97;62.94;100580.13;5073193;28;20103;-43
2022/10/22 05:18:49;;;;;;;22.70;13.90;;;;;;;10.45;60.80;100559.44;5073259;28;20530;-40
2022/10/22 05:21:17;;;;;;;28.67;14.90;;;;;;;10.92;58.90;100574.19;5073188;28;20083;-41
2022/10/22 05:23:44;;;;;;;26.48;14.25;;;;;;;11.10;58.77;100578.28;5070402;28;20039;-41
2022/10/22 05:26:12;;;;;;;23.52;14.55;;;;;;;11.30;58.36;100582.03;5073338;28;20032;-41
2022/10/22 05:28:38;;;;;;;25.33;16.02;;;;;;;11.91;59.92;100586.97;5072880;28;20079;-42
2022/10/22 05:31:05;;;;;;;44.58;25.98;;;;;;;11.91;56.07;100586.97;5072746;28;20452;-43
2022/10/22 05:33:31;;;;;;;28.58;19.63;;;;;;;11.98;56.28;100581.72;5072494;28;20484;-42
2022/10/22 05:35:57;;;;;;;39.00;23.55;;;;;;;12.38;55.35;100594.56;5071956;28;20028;-42
2022/10/22 05:38:23;;;;;;;28.45;16.25;;;;;;;12.79;53.49;100594.56;5072468;28;20025;-43
2022/10/22 05:41:05;;;;;;;26.92;13.27;;;;;;;13.15;52.72;100598.88;5073229;28;20099;-42
2022/10/22 05:43:31;;;;;;;19.50;13.10;;;;;;;13.37;51.34;100601.47;5071033;28;20091;-42
2022/10/22 05:46:03;;;;;;;18.38;12.40;;;;;;;13.42;51.14;100588.28;5070615;28;20115;-43
2022/10/22 05:48:29;;;;;;;21.10;14.10;;;;;;;13.61;50.32;100576.84;5054183;28;20083;-43
2022/10/22 05:50:55;;;;;;;19.30;12.18;;;;;;;13.74;50.06;100578.69;5052550;28;20554;-43
2022/10/22 05:53:20;;;;;;;26.13;12.95;;;;;;;14.30;62.47;100585.50;5052626;28;20025;-41
2022/10/22 05:55:45;;;;;;;22.92;12.45;;;;;;;14.80;57.06;100583.16;5052633;28;20443;-42
2022/10/22 05:58:12;;;;;;;19.50;12.23;;;;;;;14.73;47.76;100576.19;5053003;28;20100;-41
2022/10/22 06:00:37;;;;;;;20.55;12.00;;;;;;;14.40;48.33;100579.72;5052812;28;20079;-42
2022/10/22 06:03:03;;;;;;;15.82;12.20;;;;;;;14.73;46.99;100579.69;5053132;28;20020;-41
2022/10/22 06:05:28;;;;;;;20.20;12.52;;;;;;;14.87;47.01;100583.16;5057542;28;20036;-42
2022/10/22 06:07:56;;;;;;;19.50;12.45;;;;;;;14.83;46.83;100584.59;5072504;28;20039;-42
2022/10/22 06:10:22;;;;;;;21.23;11.63;;;;;;;15.04;46.80;100584.34;5072576;28;20115;-41
2022/10/22 06:12:48;;;;;;;17.83;11.98;;;;;;;15.40;46.28;100574.88;5072590;28;20074;-42
2022/10/22 06:15:15;;;;;;;18.45;12.02;;;;;;;15.50;45.77;100577.09;5071935;28;20120;-43
2022/10/22 06:17:43;;;;;;;20.83;12.32;;;;;;;15.91;45.94;100573.13;5072136;28;20493;-42
2022/10/22 06:20:09;;;;;;;17.65;11.55;;;;;;;16.15;43.34;100568.78;5072203;28;20020;-42
2022/10/22 06:22:35;;;;;;;18.77;12.00;;;;;;;16.03;44.22;100578.63;5070906;28;20055;-43
2022/10/22 06:25:00;;;;;;;16.73;11.43;;;;;;;16.02;44.04;100579.66;5072347;28;20016;-43
2022/10/22 06:27:26;;;;;;;18.58;11.70;;;;;;;16.50;42.49;100573.63;5070188;28;20101;-42
2022/10/22 06:29:51;;;;;;;20.50;13.05;;;;;;;16.71;42.26;100582.31;5058703;28;20857;-42
2022/10/22 06:32:17;;;;;;;21.92;12.80;;;;;;;16.90;42.22;100591.22;5084171;28;20039;-40
2022/10/22 06:34:42;;;;;;;25.98;11.20;;;;;;;16.93;54.32;100598.84;5076142;28;20051;-42
2022/10/22 06:37:09;;;;;;;23.73;11.25;;;;;;;17.50;42.43;100588.59;5071476;28;20020;-42
2022/10/22 06:39:35;;;;;;;23.73;13.27;;;;;;;17.45;40.67;100580.38;5069866;28;20484;-42
2022/10/22 06:42:00;;;;;;;22.50;13.27;;;;;;;17.37;40.23;100594.97;5070740;28;20032;-42
2022/10/22 06:44:26;;;;;;;28.77;14.57;;;;;;;16.99;41.41;100596.06;5070699;28;20453;-36
2022/10/22 06:46:52;;;;;;;28.48;14.00;;;;;;;16.95;41.89;100596.75;5070858;28;20104;-36
2022/10/22 06:49:19;;;;;;;25.35;15.02;;;;;;;17.51;40.20;100602.84;5071091;28;20017;-36
2022/10/22 06:51:48;;;;;;;23.55;14.20;;;;;;;17.60;39.45;100590.72;5070364;28;20105;-37
2022/10/22 06:54:14;;;;;;;25.40;13.63;;;;;;;17.93;39.16;100601.03;5070585;28;20044;-36
2022/10/22 06:56:39;;;;;;;25.05;12.52;;;;;;;18.16;39.11;100588.63;5070668;28;20047;-36
2022/10/22 06:59:05;;;;;;;22.25;13.95;;;;;;;18.20;38.68;100605.16;5070898;28;20016;-35
2022/10/22 07:01:32;;;;;;;17.48;12.20;;;;;;;18.36;37.81;100610.66;5070877;28;20103;-36
2022/10/22 07:03:58;;;;;;;19.73;11.65;;;;;;;18.40;37.75;100624.50;5070843;28;20488;-37
2022/10/22 07:06:24;;;;;;;21.23;11.63;;;;;;;17.72;39.44;100623.06;5071107;28;20122;-42
2022/10/22 07:08:51;;;;;;;29.63;13.30;;;;;;;17.72;38.53;100621.19;5071936;28;20384;-43
2022/10/22 07:11:21;;;;;;;19.92;11.75;;;;;;;18.19;38.57;100623.19;5071999;28;20016;-42
2022/10/22 07:13:47;;;;;;;16.88;10.85;;;;;;;18.68;37.73;100614.91;5071419;28;20028;-43
2022/10/22 07:16:14;;;;;;;18.83;10.63;;;;;;;19.41;36.96;100618.03;5071094;28;20020;-43
2022/10/22 07:18:40;;;;;;;16.50;10.48;;;;;;;19.82;36.45;100606.13;5070273;28;20021;-42
2022/10/22 07:21:08;;;;;;;15.90;11.15;;;;;;;19.37;36.61;100609.59;5070719;28;20200;-43
2022/10/22 07:23:33;;;;;;;23.88;11.18;;;;;;;19.30;36.33;100609.72;5070558;28;20020;-47
2022/10/22 07:26:01;;;;;;;41.53;26.92;;;;;;;20.00;35.97;100606.97;5070493;28;20020;-47
2022/10/22 07:28:27;;;;;;;17.77;11.38;;;;;;;20.54;34.98;100603.72;5070607;28;20032;-43
2022/10/22 07:30:53;;;;;;;19.98;10.68;;;;;;;20.81;33.93;100601.13;5070844;28;20031;-44
2022/10/22 07:33:18;;;;;;;20.95;10.70;;;;;;;20.56;33.52;100601.59;5070604;28;20024;-42
2022/10/22 07:35:44;;;;;;;14.98;10.32;;;;;;;20.55;33.76;100598.06;5068907;28;20086;-44
2022/10/22 07:38:10;;;;;;;18.90;10.75;;;;;;;20.90;33.89;100594.22;5071078;28;20067;-43
2022/10/22 07:40:36;;;;;;;18.85;9.77;;;;;;;20.75;39.13;100604.84;5070612;28;20036;-42
2022/10/22 07:43:02;;;;;;;15.57;9.68;;;;;;;21.24;34.02;100603.03;5070846;28;20032;-43
2022/10/22 07:45:28;;;;;;;14.50;9.80;;;;;;;20.69;33.72;100601.25;5070764;28;20028;-42
2022/10/22 07:47:53;;;;;;;16.45;10.50;;;;;;;21.06;33.83;100601.47;5070510;28;20476;-42
2022/10/22 07:50:18;;;;;;;17.83;10.20;;;;;;;21.57;32.90;100600.41;5070648;28;20040;-40
2022/10/22 07:52:44;;;;;;;17.13;9.82;;;;;;;22.04;32.27;100610.59;5070086;28;20035;-43
2022/10/22 07:55:10;;;;;;;13.55;9.48;;;;;;;22.23;31.94;100600.97;5070278;28;20150;-43
2022/10/22 07:57:38;;;;;;;15.10;9.80;;;;;;;22.25;31.73;100600.75;5070588;28;20032;-42
2022/10/22 08:00:06;;;;;;;18.08;9.93;;;;;;;22.47;31.65;100597.94;5070731;28;20028;-41
2022/10/22 08:02:31;;;;;;;13.02;9.18;;;;;;;22.08;32.33;100590.03;5070370;28;20035;-42
2022/10/22 08:04:58;;;;;;;14.85;9.57;;;;;;;22.09;32.08;100607.13;5070793;28;20032;-41
2022/10/22 08:07:24;;;;;;;13.98;9.55;;;;;;;22.40;32.02;100600.84;5070274;28;20119;-42
2022/10/22 08:09:49;;;;;;;24.85;11.07;;;;;;;22.45;39.03;100583.81;5070381;28;20016;-42
2022/10/22 08:12:15;;;;;;;18.17;9.82;;;;;;;22.74;35.15;100589.66;5070368;28;20381;-42
2022/10/22 08:14:40;;;;;;;28.25;11.50;;;;;;;22.76;38.39;100592.91;5070614;28;20040;-42
2022/10/22 08:17:06;;;;;;;23.00;9.85;;;;;;;23.25;38.32;100594.50;5070267;28;20099;-38
2022/10/22 08:19:31;;;;;;;14.50;8.50;;;;;;;23.92;35.20;100600.06;5070269;28;20020;-36
2022/10/22 08:21:58;;;;;;;25.33;8.35;;;;;;;24.29;33.57;100588.06;5069946;28;20106;-36
2022/10/22 08:24:25;;;;;;;16.30;7.18;;;;;;;24.38;31.77;100586.41;5070295;28;20039;-36
2022/10/22 08:26:53;;;;;;;18.25;9.23;;;;;;;24.12;35.01;100596.50;5070591;28;20059;-35
2022/10/22 08:29:20;;;;;;;12.90;8.15;;;;;;;23.49;32.28;100585.84;5070286;28;20596;-35
2022/10/22 08:31:46;;;;;;;18.73;7.43;;;;;;;22.94;34.04;100585.41;5070067;28;20105;-36
2022/10/22 08:34:11;;;;;;;13.93;7.25;;;;;;;23.24;34.34;100592.84;5070190;28;20024;-35
2022/10/22 08:36:36;;;;;;;51.17;10.27;;;;;;;23.58;40.00;100589.69;5068062;28;20036;-36
2022/10/22 08:39:02;;;;;;;12.88;7.38;;;;;;;23.67;36.11;100588.06;5066673;28;20049;-37
2022/10/22 08:41:27;;;;;;;13.05;6.78;;;;;;;23.84;34.69;100589.72;5068344;28;20036;-37
2022/10/22 08:44:20;;;;;;;13.60;7.60;;;;;;;23.02;36.24;100583.00;5068535;28;20024;-36
2022/10/22 08:47:06;;;;;;;15.27;7.15;;;;;;;23.61;36.89;100584.53;5066480;28;20110;-36
2022/10/22 08:49:35;;;;;;;13.52;7.80;;;;;;;23.46;37.57;100575.56;5066942;28;20515;-37
2022/10/22 08:52:00;;;;;;;12.10;6.68;;;;;;;23.56;32.88;100578.28;5069520;28;20025;-37
2022/10/22 08:54:54;;;;;;;10.68;6.47;;;;;;;23.38;32.82;100569.56;5072638;28;20039;-37
2022/10/22 08:57:41;;;;;;;29.42;9.77;;;;;;;23.54;33.35;100566.84;5070544;28;20115;-36
2022/10/22 09:00:21;;;;;;;15.13;7.80;;;;;;;23.58;33.98;100557.88;5068736;28;20020;-37
2022/10/22 09:03:05;;;;;;;13.15;8.00;;;;;;;23.61;32.35;100556.56;5068794;28;20105;-37
2022/10/22 09:05:43;;;;;;;17.77;10.18;;;;;;;22.93;32.98;100553.94;5073102;28;20120;-35
2022/10/22 09:08:14;;;;;;;13.45;8.55;;;;;;;22.96;33.43;100543.34;5073121;28;20028;-38
2022/10/22 09:10:46;;;;;;;10.45;8.60;;;;;;;22.47;33.43;100546.41;5073438;28;20032;-37
2022/10/22 09:13:17;;;;;;;20.15;10.52;;;;;;;21.93;36.58;100554.69;5073634;28;20017;-36
2022/10/22 09:15:44;;;;;;;16.08;9.50;;;;;;;22.67;37.40;100542.16;5073332;28;20035;-36
2022/10/22 09:18:39;;;;;;;20.08;9.05;;;;;;;23.32;39.21;100546.19;5073052;28;20475;-36
2022/10/22 09:21:12;;;;;;;12.75;7.07;;;;;;;22.65;33.41;100539.69;5073438;28;20184;-36
2022/10/22 09:24:11;;;;;;;13.15;7.43;;;;;;;21.55;39.99;100537.56;5073197;28;20035;-36
2022/10/22 09:26:39;;;;;;;15.18;7.72;;;;;;;21.98;36.59;100541.19;5073220;28;20059;-36
2022/10/22 09:29:05;;;;;;;8.35;6.60;;;;;;;21.73;35.00;100529.06;5073032;28;20017;-36
2022/10/22 09:31:32;;;;;;;11.80;6.70;;;;;;;22.29;36.37;100528.66;5073019;28;20025;-35
2022/10/22 09:34:04;;;;;;;15.35;8.00;;;;;;;22.86;35.91;100518.88;5073146;28;20043;-36
2022/10/22 09:36:30;;;;;;;10.35;6.68;;;;;;;22.44;33.41;100530.66;5072805;28;20032;-36
2022/10/22 09:38:56;;;;;;;7.95;6.35;;;;;;;22.86;34.82;100529.75;5072570;28;20020;-36
2022/10/22 09:41:28;;;;;;;19.30;7.72;;;;;;;23.52;38.79;100517.44;5072929;28;20020;-43
2022/10/22 09:43:54;;;;;;;11.63;7.20;;;;;;;24.41;35.77;100526.03;5072026;28;20020;-42
2022/10/22 09:46:23;;;;;;;11.63;6.30;;;;;;;24.76;33.43;100508.78;5071582;28;20046;-41
2022/10/22 09:48:54;;;;;;;;;;;;;;;25.28;32.54;100513.94;5072365;28;20048;-41
2022/10/22 09:51:22;;;;;;;8.40;6.40;;;;;;;25.21;29.19;100505.25;5071683;28;19908;-42
2022/10/22 09:53:59;;;;;;;8.57;6.28;;;;;;;25.01;30.09;100498.03;5071631;28;20039;-41
2022/10/22 09:56:39;;;;;;;9.98;6.40;;;;;;;24.38;29.53;100478.44;5071681;28;20071;-42
2022/10/22 09:59:05;;;;;;;9.15;6.35;;;;;;;24.10;30.00;100481.78;5071375;28;20013;-41
2022/10/22 10:01:34;;;;;;;44.10;29.92;;;;;;;24.34;31.75;100484.72;5072278;28;20036;-41
2022/10/22 10:04:05;;;;;;;12.63;7.70;;;;;;;24.19;30.02;100471.97;5072574;28;20032;-42
2022/10/22 10:06:32;;;;;;;11.95;7.20;;;;;;;23.81;30.59;100468.81;5072877;28;20039;-41
2022/10/22 10:09:01;;;;;;;8.60;6.65;;;;;;;23.87;30.43;100467.69;5072731;28;20024;-41
2022/10/22 10:11:34;;;;;;;11.77;6.60;;;;;;;23.38;30.68;100462.81;5071770;28;20035;-41
2022/10/22 10:14:11;;;;;;;12.27;6.57;;;;;;;22.99;30.58;100461.38;5072790;28;20051;-41
2022/10/22 10:16:53;;;;;;;10.02;6.72;;;;;;;22.39;32.25;100452.81;5071677;28;20029;-42
2022/10/22 10:19:43;;;;;;;10.38;6.75;;;;;;;22.85;32.64;100457.56;5067507;28;20012;-41
2022/10/22 10:22:59;;;;;;;10.60;7.05;;;;;;;23.57;32.23;100460.38;5071965;28;20052;-42
2022/10/22 10:25:40;;;;;;;13.68;6.47;;;;;;;23.59;31.22;100444.63;5061479;28;20056;-41
2022/10/22 10:28:35;;;;;;;7.47;6.40;;;;;;;24.11;30.58;100439.94;5070907;28;20078;-42
2022/10/22 10:31:42;;;;;;;14.43;7.03;;;;;;;24.11;30.98;100429.06;5070846;28;20032;-43
2022/10/22 10:34:34;;;;;;;8.65;5.97;;;;;;;24.26;30.22;100437.16;5071265;28;20067;-43
2022/10/22 10:37:04;;;;;;;11.45;6.90;;;;;;;24.55;29.17;100434.59;5070752;28;20227;-42
2022/10/22 10:39:32;;;;;;;9.00;6.32;;;;;;;24.31;29.76;100415.38;5071556;28;20067;-41
2022/10/22 10:42:11;;;;;;;14.20;6.53;;;;;;;24.25;29.28;100411.03;5070665;28;20024;-41
2022/10/22 10:44:51;;;;;;;10.80;6.97;;;;;;;24.26;29.36;100414.59;5070221;28;20028;-40
2022/10/22 10:47:28;;;;;;;13.35;6.85;;;;;;;23.99;29.64;100408.44;5070374;28;20025;-42
2022/10/22 10:50:11;;;;;;;9.68;6.85;;;;;;;23.53;29.66;100397.66;5070331;28;20021;-43
2022/10/22 10:52:53;;;;;;;13.70;6.95;;;;;;;22.82;30.66;100372.09;5070751;28;20090;-43
2022/10/22 10:55:31;;;;;;;10.90;6.85;;;;;;;23.32;30.35;100377.00;5070841;28;20447;-42
2022/10/22 10:58:11;;;;;;;8.90;5.78;;;;;;;23.81;30.35;100377.22;5071640;28;20021;-42
2022/10/22 11:00:54;;;;;;;7.93;5.90;;;;;;;24.48;29.36;100374.22;5071157;28;20443;-42
2022/10/22 11:03:38;;;;;;;7.47;6.00;;;;;;;24.53;28.90;100371.50;5071478;28;20032;-43
2022/10/22 11:06:10;;;;;;;11.38;5.90;;;;;;;24.84;28.78;100368.56;5071342;28;20017;-41
2022/10/22 11:08:48;;;;;;;12.10;6.13;;;;;;;24.40;29.03;100362.00;5074114;28;20031;-41
2022/10/22 11:11:20;;;;;;;12.43;6.40;;;;;;;24.32;29.06;100361.81;5071437;28;20048;-42
2022/10/22 11:13:56;;;;;;;14.82;6.45;;;;;;;24.53;28.09;100355.19;5083426;28;20020;-42
2022/10/22 11:16:36;;;;;;;8.80;6.28;;;;;;;24.19;29.03;100339.56;5091332;28;20038;-41
2022/10/22 11:19:12;;;;;;;9.15;6.32;;;;;;;24.07;29.19;100336.38;5091362;28;20031;-43
2022/10/22 11:21:58;;;;;;;8.70;6.15;;;;;;;23.91;29.20;100332.06;5090780;28;20107;-43
2022/10/22 11:24:34;;;;;;;9.55;6.10;;;;;;;23.50;29.17;100329.47;5086291;28;20020;-41
2022/10/22 11:27:05;;;;;;;8.30;5.78;;;;;;;23.02;30.06;100329.78;5070611;28;20032;-42
2022/10/22 11:29:40;;;;;;;15.60;6.45;;;;;;;22.61;30.73;100318.91;5070487;28;20040;-41